createdAt,value
2018-06-01T00:00:20.770Z,8.90
2018-06-01T00:01:20.804Z,8.90
2018-06-01T00:02:20.786Z,8.90
2018-06-01T00:03:20.805Z,8.90
2018-06-01T00:04:20.778Z,8.90
2018-06-01T00:05:20.706Z,9.20
2018-06-01T00:06:20.772Z,9.20
2018-06-01T00:07:20.779Z,9.20
2018-06-01T00:08:20.710Z,9.20
2018-06-01T00:09:20.714Z,9.20
2018-06-01T00:10:20.715Z,9.20
2018-06-01T00:11:20.782Z,9.20
2018-06-01T00:12:20.666Z,9.20
2018-06-01T00:13:20.716Z,9.20
2018-06-01T00:14:20.786Z,9.20
2018-06-01T00:15:20.706Z,12.60
2018-06-01T00:16:20.783Z,12.60
2018-06-01T00:17:20.820Z,12.60
2018-06-01T00:18:20.821Z,12.60
2018-06-01T00:19:20.761Z,12.60
2018-06-01T00:20:20.783Z,12.60
2018-06-01T00:21:20.791Z,12.60
2018-06-01T00:22:20.807Z,12.60
2018-06-01T00:23:20.821Z,12.60
2018-06-01T00:24:20.785Z,12.60
2018-06-01T00:26:20.756Z,10.80
2018-06-01T00:27:20.726Z,10.80
2018-06-01T00:28:20.799Z,10.80
2018-06-01T00:29:20.825Z,10.80
2018-06-01T00:30:20.752Z,10.80
2018-06-01T00:31:20.772Z,10.80
2018-06-01T00:32:20.764Z,10.80
2018-06-01T00:33:20.824Z,10.80
2018-06-01T00:34:20.755Z,10.80
2018-06-01T00:35:20.813Z,9.80
2018-06-01T00:36:20.701Z,9.80
2018-06-01T00:37:20.832Z,9.80
2018-06-01T00:38:20.700Z,9.80
2018-06-01T00:39:20.839Z,9.80
2018-06-01T00:40:20.720Z,9.80
2018-06-01T00:41:20.832Z,9.80
2018-06-01T00:42:20.766Z,9.80
2018-06-01T00:43:20.728Z,9.80
2018-06-01T00:44:20.826Z,9.80
2018-06-01T00:45:20.798Z,12.90
2018-06-01T00:46:20.779Z,12.90
2018-06-01T00:47:20.771Z,12.90
2018-06-01T00:48:20.862Z,12.90
2018-06-01T00:49:20.865Z,12.90
2018-06-01T00:50:20.781Z,12.90
2018-06-01T00:51:20.804Z,12.90
2018-06-01T00:52:20.743Z,12.90
2018-06-01T00:53:20.814Z,12.90
2018-06-01T00:54:20.728Z,12.90
2018-06-01T00:55:20.844Z,12.90
2018-06-01T00:56:20.729Z,12.90
2018-06-01T00:57:20.850Z,12.90
2018-06-01T00:58:20.852Z,12.90
2018-06-01T00:59:20.830Z,12.90
2018-06-01T01:00:20.839Z,12.90
2018-06-01T01:01:20.792Z,12.90
2018-06-01T01:02:20.851Z,12.90
2018-06-01T01:03:20.848Z,12.90
2018-06-01T01:04:20.787Z,12.90
2018-06-01T01:05:20.809Z,10.80
2018-06-01T01:06:20.736Z,10.80
2018-06-01T01:07:20.736Z,10.80
2018-06-01T01:08:20.817Z,10.80
2018-06-01T01:09:20.813Z,10.80
2018-06-01T01:10:20.736Z,10.80
2018-06-01T01:11:20.811Z,10.80
2018-06-01T01:12:20.813Z,10.80
2018-06-01T01:13:20.759Z,10.80
2018-06-01T01:14:20.814Z,10.80
2018-06-01T01:15:20.858Z,11.60
2018-06-01T01:16:20.729Z,11.60
2018-06-01T01:17:20.794Z,11.60
2018-06-01T01:18:20.799Z,11.60
2018-06-01T01:19:20.752Z,11.60
2018-06-01T01:20:20.865Z,11.60
2018-06-01T01:21:20.796Z,11.60
2018-06-01T01:22:20.742Z,11.60
2018-06-01T01:23:20.781Z,11.60
2018-06-01T01:24:20.802Z,11.60
2018-06-01T01:25:20.844Z,11.50
2018-06-01T01:26:20.763Z,11.50
2018-06-01T01:27:20.763Z,11.50
2018-06-01T01:28:20.837Z,11.50
2018-06-01T01:29:20.761Z,11.50
2018-06-01T01:30:20.765Z,11.50
2018-06-01T01:31:20.767Z,11.50
2018-06-01T01:32:20.837Z,11.50
2018-06-01T01:33:20.768Z,11.50
2018-06-01T01:34:20.799Z,11.50
2018-06-01T01:35:20.760Z,13.00
2018-06-01T01:36:20.834Z,13.00
2018-06-01T01:37:20.756Z,13.00
2018-06-01T01:38:20.832Z,13.00
2018-06-01T01:39:20.761Z,13.00
2018-06-01T01:40:20.765Z,13.00
2018-06-01T01:41:20.762Z,13.00
2018-06-01T01:42:20.836Z,13.00
2018-06-01T01:43:20.838Z,13.00
2018-06-01T01:44:20.763Z,13.00
2018-06-01T01:45:20.761Z,9.50
2018-06-01T01:46:20.804Z,9.50
2018-06-01T01:47:20.747Z,9.50
2018-06-01T01:48:20.778Z,9.50
2018-06-01T01:49:20.845Z,9.50
2018-06-01T01:50:20.880Z,9.50
2018-06-01T01:51:20.844Z,9.50
2018-06-01T01:52:20.878Z,9.50
2018-06-01T01:53:20.766Z,9.50
2018-06-01T01:54:20.851Z,9.50
2018-06-01T01:55:20.850Z,10.80
2018-06-01T01:56:20.797Z,10.80
2018-06-01T01:57:20.783Z,10.80
2018-06-01T01:58:20.855Z,10.80
2018-06-01T01:59:20.783Z,10.80
2018-06-01T02:00:20.785Z,10.80
2018-06-01T02:01:20.867Z,10.80
2018-06-01T02:02:20.788Z,10.80
2018-06-01T02:03:20.786Z,10.80
2018-06-01T02:04:20.787Z,10.80
2018-06-01T02:05:20.854Z,13.20
2018-06-01T02:06:20.857Z,13.20
2018-06-01T02:07:20.776Z,13.20
2018-06-01T02:08:20.877Z,13.20
2018-06-01T02:09:20.797Z,13.20
2018-06-01T02:10:20.787Z,13.20
2018-06-01T02:11:20.896Z,13.20
2018-06-01T02:12:20.861Z,13.20
2018-06-01T02:13:20.858Z,13.20
2018-06-01T02:14:20.856Z,13.20
2018-06-01T02:15:20.761Z,10.99
2018-06-01T02:16:20.899Z,10.99
2018-06-01T02:17:20.893Z,10.99
2018-06-01T02:18:20.862Z,10.99
2018-06-01T02:19:20.784Z,10.99
2018-06-01T02:20:20.807Z,10.99
2018-06-01T02:21:20.890Z,10.99
2018-06-01T02:22:20.873Z,10.99
2018-06-01T02:23:20.773Z,10.99
2018-06-01T02:24:20.867Z,10.99
2018-06-01T02:25:20.868Z,10.30
2018-06-01T02:26:20.871Z,10.30
2018-06-01T02:27:20.802Z,10.30
2018-06-01T02:28:20.805Z,10.30
2018-06-01T02:29:20.802Z,10.30
2018-06-01T02:30:20.878Z,10.30
2018-06-01T02:31:20.874Z,10.30
2018-06-01T02:32:20.878Z,10.30
2018-06-01T02:33:20.895Z,10.30
2018-06-01T02:34:20.837Z,10.30
2018-06-01T02:35:20.796Z,14.90
2018-06-01T02:36:20.874Z,14.90
2018-06-01T02:37:20.795Z,14.90
2018-06-01T02:38:20.872Z,14.90
2018-06-01T02:39:20.798Z,14.90
2018-06-01T02:40:20.901Z,14.90
2018-06-01T02:41:20.807Z,14.90
2018-06-01T02:42:20.876Z,14.90
2018-06-01T02:43:20.800Z,14.90
2018-06-01T02:44:20.878Z,14.90
2018-06-01T02:45:20.813Z,12.40
2018-06-01T02:46:20.815Z,12.40
2018-06-01T02:47:20.815Z,12.40
2018-06-01T02:48:20.887Z,12.40
2018-06-01T02:49:20.851Z,12.40
2018-06-01T02:50:20.821Z,12.40
2018-06-01T02:51:20.891Z,12.40
2018-06-01T02:52:20.820Z,12.40
2018-06-01T02:53:20.903Z,12.40
2018-06-01T02:54:20.819Z,12.40
2018-06-01T02:55:20.891Z,12.99
2018-06-01T02:56:20.826Z,12.99
2018-06-01T02:57:20.892Z,12.99
2018-06-01T02:58:20.824Z,12.99
2018-06-01T02:59:20.828Z,12.99
2018-06-01T03:00:20.895Z,12.99
2018-06-01T03:01:20.896Z,12.99
2018-06-01T03:02:20.827Z,12.99
2018-06-01T03:03:20.826Z,12.99
2018-06-01T03:04:20.906Z,12.99
2018-06-01T03:05:20.875Z,10.60
2018-06-01T03:06:20.939Z,10.60
2018-06-01T03:07:20.927Z,10.60
2018-06-01T03:08:20.931Z,10.60
2018-06-01T03:09:20.865Z,10.60
2018-06-01T03:10:20.879Z,10.60
2018-06-01T03:11:20.899Z,10.60
2018-06-01T03:12:20.843Z,10.60
2018-06-01T03:13:20.935Z,10.60
2018-06-01T03:14:20.807Z,10.60
2018-06-01T03:15:20.904Z,13.50
2018-06-01T03:16:20.903Z,13.50
2018-06-01T03:17:20.822Z,13.50
2018-06-01T03:18:20.809Z,13.50
2018-06-01T03:19:20.898Z,13.50
2018-06-01T03:20:20.902Z,13.50
2018-06-01T03:21:20.790Z,13.50
2018-06-01T03:22:20.813Z,13.50
2018-06-01T03:23:20.859Z,13.50
2018-06-01T03:24:20.903Z,13.50
2018-06-01T03:25:20.845Z,12.10
2018-06-01T03:26:20.945Z,12.10
2018-06-01T03:27:20.872Z,12.10
2018-06-01T03:28:20.881Z,12.10
2018-06-01T03:29:20.814Z,12.10
2018-06-01T03:30:20.846Z,12.10
2018-06-01T03:31:20.880Z,12.10
2018-06-01T03:32:20.869Z,12.10
2018-06-01T03:33:20.847Z,12.10
2018-06-01T03:34:20.848Z,12.10
2018-06-01T03:35:20.916Z,16.99
2018-06-01T03:36:20.860Z,16.99
2018-06-01T03:37:20.919Z,16.99
2018-06-01T03:38:20.852Z,16.99
2018-06-01T03:39:20.920Z,16.99
2018-06-01T03:40:20.939Z,16.99
2018-06-01T03:41:20.856Z,16.99
2018-06-01T03:42:20.920Z,16.99
2018-06-01T03:43:20.919Z,16.99
2018-06-01T03:44:20.852Z,16.99
2018-06-01T03:45:20.841Z,13.50
2018-06-01T03:46:20.953Z,13.50
2018-06-01T03:47:20.845Z,13.50
2018-06-01T03:48:20.860Z,13.50
2018-06-01T03:49:20.923Z,13.50
2018-06-01T03:50:20.849Z,13.50
2018-06-01T03:51:20.832Z,13.50
2018-06-01T03:52:20.952Z,13.50
2018-06-01T03:53:20.942Z,13.50
2018-06-01T03:54:20.905Z,13.50
2018-06-01T03:55:20.956Z,16.30
2018-06-01T03:56:20.893Z,16.30
2018-06-01T03:57:20.847Z,16.30
2018-06-01T03:58:20.873Z,16.30
2018-06-01T03:59:20.969Z,16.30
2018-06-01T04:00:20.951Z,16.30
2018-06-01T04:01:20.854Z,16.30
2018-06-01T04:02:20.874Z,16.30
2018-06-01T04:03:20.959Z,16.30
2018-06-01T04:04:20.841Z,16.30
2018-06-01T04:05:20.937Z,12.80
2018-06-01T04:06:20.867Z,12.80
2018-06-01T04:07:20.939Z,12.80
2018-06-01T04:08:20.935Z,12.80
2018-06-01T04:09:20.879Z,12.80
2018-06-01T04:10:20.871Z,12.80
2018-06-01T04:11:20.934Z,12.80
2018-06-01T04:12:20.939Z,12.80
2018-06-01T04:13:20.878Z,12.80
2018-06-01T04:14:20.874Z,12.80
2018-06-01T04:15:20.939Z,13.50
2018-06-01T04:16:20.913Z,13.50
2018-06-01T04:17:20.882Z,13.50
2018-06-01T04:18:20.879Z,13.50
2018-06-01T04:19:20.944Z,13.50
2018-06-01T04:20:20.879Z,13.50
2018-06-01T04:21:20.947Z,13.50
2018-06-01T04:22:20.881Z,13.50
2018-06-01T04:23:20.880Z,13.50
2018-06-01T04:24:20.945Z,13.50
2018-06-01T04:25:20.882Z,15.50
2018-06-01T04:26:20.949Z,15.50
2018-06-01T04:27:20.884Z,15.50
2018-06-01T04:28:20.880Z,15.50
2018-06-01T04:29:20.886Z,15.50
2018-06-01T04:30:20.951Z,15.50
2018-06-01T04:31:20.953Z,15.50
2018-06-01T04:32:20.887Z,15.50
2018-06-01T04:33:20.924Z,15.50
2018-06-01T04:34:20.954Z,15.50
2018-06-01T04:35:20.945Z,13.00
2018-06-01T04:36:20.940Z,13.00
2018-06-01T04:37:20.855Z,13.00
2018-06-01T04:38:20.892Z,13.00
2018-06-01T04:39:20.894Z,13.00
2018-06-01T04:40:20.949Z,13.00
2018-06-01T04:41:20.855Z,13.00
2018-06-01T04:42:20.855Z,13.00
2018-06-01T04:43:20.893Z,13.00
2018-06-01T04:44:20.888Z,13.00
2018-06-01T04:45:20.912Z,14.60
2018-06-01T04:46:20.969Z,14.60
2018-06-01T04:47:20.896Z,14.60
2018-06-01T04:48:20.899Z,14.60
2018-06-01T04:49:21.043Z,14.60
2018-06-01T04:50:20.930Z,14.60
2018-06-01T04:51:20.899Z,14.60
2018-06-01T04:52:20.965Z,14.60
2018-06-01T04:53:20.897Z,14.60
2018-06-01T04:54:20.966Z,14.60
2018-06-01T04:55:21.001Z,12.60
2018-06-01T04:56:20.996Z,12.60
2018-06-01T04:57:20.954Z,12.60
2018-06-01T04:58:20.897Z,12.60
2018-06-01T04:59:20.969Z,12.60
2018-06-01T05:00:20.956Z,12.60
2018-06-01T05:01:20.973Z,12.60
2018-06-01T05:02:20.953Z,12.60
2018-06-01T05:03:20.939Z,12.60
2018-06-01T05:04:21.022Z,12.60
2018-06-01T05:05:20.951Z,12.80
2018-06-01T05:06:20.905Z,12.80
2018-06-01T05:07:20.979Z,12.80
2018-06-01T05:08:21.008Z,12.80
2018-06-01T05:09:21.012Z,12.80
2018-06-01T05:10:20.977Z,12.80
2018-06-01T05:12:20.979Z,12.80
2018-06-01T05:13:21.020Z,12.80
2018-06-01T05:14:21.020Z,12.80
2018-06-01T05:15:20.924Z,15.00
2018-06-01T05:16:20.972Z,15.00
2018-06-01T05:17:20.907Z,15.00
2018-06-01T05:18:20.908Z,15.00
2018-06-01T05:19:20.972Z,15.00
2018-06-01T05:20:20.905Z,15.00
2018-06-01T05:21:20.905Z,15.00
2018-06-01T05:22:20.965Z,15.00
2018-06-01T05:23:21.014Z,15.00
2018-06-01T05:24:20.869Z,15.00
2018-06-01T05:25:20.978Z,15.00
2018-06-01T05:26:20.995Z,15.90
2018-06-01T05:27:20.922Z,15.90
2018-06-01T05:28:20.999Z,15.90
2018-06-01T05:29:20.926Z,15.90
2018-06-01T05:30:20.995Z,15.90
2018-06-01T05:31:20.995Z,15.90
2018-06-01T05:32:20.999Z,15.90
2018-06-01T05:33:21.001Z,15.90
2018-06-01T05:34:20.926Z,15.90
2018-06-01T05:35:20.927Z,15.90
2018-06-01T05:36:20.918Z,18.90
2018-06-01T05:37:20.914Z,18.90
2018-06-01T05:38:20.916Z,18.90
2018-06-01T05:39:21.054Z,18.90
2018-06-01T05:40:20.971Z,18.90
2018-06-01T05:41:20.905Z,18.90
2018-06-01T05:42:20.999Z,18.90
2018-06-01T05:43:20.969Z,18.90
2018-06-01T05:44:20.907Z,18.90
2018-06-01T05:45:21.034Z,18.90
2018-06-01T05:46:20.972Z,18.30
2018-06-01T05:47:21.033Z,18.30
2018-06-01T05:48:20.925Z,18.30
2018-06-01T05:49:20.923Z,18.30
2018-06-01T05:50:21.000Z,18.30
2018-06-01T05:51:20.998Z,18.30
2018-06-01T05:52:20.943Z,18.30
2018-06-01T05:53:20.913Z,18.30
2018-06-01T05:54:21.047Z,18.30
2018-06-01T05:55:21.000Z,18.30
2018-06-01T05:56:20.950Z,20.10
2018-06-01T05:57:20.916Z,20.10
2018-06-01T05:58:20.952Z,20.10
2018-06-01T05:59:20.954Z,20.10
2018-06-01T06:00:20.921Z,20.10
2018-06-01T06:01:20.931Z,20.10
2018-06-01T06:02:20.881Z,20.10
2018-06-01T06:03:21.009Z,20.10
2018-06-01T06:04:20.915Z,20.10
2018-06-01T06:05:20.957Z,20.10
2018-06-01T06:06:21.040Z,17.00
2018-06-01T06:07:20.939Z,17.00
2018-06-01T06:08:21.009Z,17.00
2018-06-01T06:09:20.925Z,17.00
2018-06-01T06:10:20.944Z,17.00
2018-06-01T06:11:21.012Z,17.00
2018-06-01T06:12:20.895Z,17.00
2018-06-01T06:13:21.055Z,17.00
2018-06-01T06:14:20.967Z,17.00
2018-06-01T06:15:21.014Z,17.00
2018-06-01T06:16:20.961Z,17.70
2018-06-01T06:17:21.024Z,17.70
2018-06-01T06:18:20.961Z,17.70
2018-06-01T06:19:21.026Z,17.70
2018-06-01T06:20:20.957Z,17.70
2018-06-01T06:21:21.022Z,17.70
2018-06-01T06:22:21.027Z,17.70
2018-06-01T06:23:20.990Z,17.70
2018-06-01T06:24:20.985Z,17.70
2018-06-01T06:25:21.030Z,17.70
2018-06-01T06:26:20.961Z,22.90
2018-06-01T06:27:20.929Z,22.90
2018-06-01T06:28:21.007Z,22.90
2018-06-01T06:29:20.904Z,22.90
2018-06-01T06:30:20.961Z,22.90
2018-06-01T06:31:21.039Z,22.90
2018-06-01T06:32:20.932Z,22.90
2018-06-01T06:33:20.938Z,22.90
2018-06-01T06:34:20.898Z,22.90
2018-06-01T06:35:20.988Z,22.90
2018-06-01T06:36:20.971Z,22.20
2018-06-01T06:37:21.070Z,22.20
2018-06-01T06:38:21.012Z,22.20
2018-06-01T06:39:20.943Z,22.20
2018-06-01T06:40:20.963Z,22.20
2018-06-01T06:41:21.058Z,22.20
2018-06-01T06:42:21.014Z,22.20
2018-06-01T06:43:21.059Z,22.20
2018-06-01T06:44:21.045Z,22.20
2018-06-01T06:45:20.942Z,22.20
2018-06-01T06:46:20.947Z,22.50
2018-06-01T06:47:21.062Z,22.50
2018-06-01T06:48:21.041Z,22.50
2018-06-01T06:49:21.076Z,22.50
2018-06-01T06:50:21.008Z,22.50
2018-06-01T06:51:21.027Z,22.50
2018-06-01T06:52:21.014Z,22.50
2018-06-01T06:53:21.008Z,22.50
2018-06-01T06:54:20.971Z,22.50
2018-06-01T06:55:21.025Z,22.50
2018-06-01T06:56:21.047Z,21.40
2018-06-01T06:57:20.970Z,21.40
2018-06-01T06:58:21.072Z,21.40
2018-06-01T06:59:21.075Z,21.40
2018-06-01T07:00:21.005Z,21.40
2018-06-01T07:01:21.019Z,21.40
2018-06-01T07:02:21.068Z,21.40
2018-06-01T07:03:21.052Z,21.40
2018-06-01T07:04:20.981Z,21.40
2018-06-01T07:05:20.994Z,21.40
2018-06-01T07:06:21.058Z,18.80
2018-06-01T07:07:21.092Z,18.80
2018-06-01T07:08:21.059Z,18.80
2018-06-01T07:09:20.983Z,18.80
2018-06-01T07:10:21.096Z,18.80
2018-06-01T07:11:20.996Z,18.80
2018-06-01T07:12:21.031Z,18.80
2018-06-01T07:13:21.097Z,18.80
2018-06-01T07:14:21.041Z,18.80
2018-06-01T07:15:21.046Z,18.80
2018-06-01T07:16:20.967Z,15.50
2018-06-01T07:17:21.002Z,15.50
2018-06-01T07:18:21.093Z,15.50
2018-06-01T07:19:20.966Z,15.50
2018-06-01T07:20:21.035Z,15.50
2018-06-01T07:21:21.120Z,15.50
2018-06-01T07:22:21.105Z,15.50
2018-06-01T07:23:21.031Z,15.50
2018-06-01T07:24:21.102Z,15.50
2018-06-01T07:25:21.126Z,15.50
2018-06-01T07:26:21.064Z,10.50
2018-06-01T07:27:21.033Z,10.50
2018-06-01T07:28:21.088Z,10.50
2018-06-01T07:29:21.098Z,10.50
2018-06-01T07:30:21.094Z,10.50
2018-06-01T07:31:21.099Z,10.50
2018-06-01T07:32:21.076Z,10.50
2018-06-01T07:33:21.029Z,10.50
2018-06-01T07:34:21.101Z,10.50
2018-06-01T07:35:21.048Z,10.50
2018-06-01T07:36:21.011Z,10.20
2018-06-01T07:37:20.976Z,10.20
2018-06-01T07:38:21.093Z,10.20
2018-06-01T07:39:21.109Z,10.20
2018-06-01T07:40:21.099Z,10.20
2018-06-01T07:41:21.051Z,10.20
2018-06-01T07:42:21.059Z,10.20
2018-06-01T07:43:20.998Z,10.20
2018-06-01T07:44:21.075Z,10.20
2018-06-01T07:45:21.111Z,10.20
2018-06-01T07:46:21.138Z,7.00
2018-06-01T07:47:21.082Z,7.00
2018-06-01T07:48:21.085Z,7.00
2018-06-01T07:49:21.101Z,7.00
2018-06-01T07:50:21.082Z,7.00
2018-06-01T07:51:21.017Z,7.00
2018-06-01T07:52:21.019Z,7.00
2018-06-01T07:53:21.018Z,7.00
2018-06-01T07:54:21.015Z,7.00
2018-06-01T07:55:21.090Z,7.00
2018-06-01T07:56:21.042Z,5.50
2018-06-01T07:57:21.117Z,5.50
2018-06-01T07:58:21.029Z,5.50
2018-06-01T07:59:20.998Z,5.50
2018-06-01T08:00:21.068Z,5.50
2018-06-01T08:01:21.116Z,5.50
2018-06-01T08:02:21.088Z,5.50
2018-06-01T08:03:21.043Z,5.50
2018-06-01T08:04:21.061Z,5.50
2018-06-01T08:05:21.050Z,5.50
2018-06-01T08:06:20.989Z,5.90
2018-06-01T08:07:21.027Z,5.90
2018-06-01T08:08:21.044Z,5.90
2018-06-01T08:09:20.960Z,5.90
2018-06-01T08:10:20.985Z,5.90
2018-06-01T08:11:20.964Z,5.90
2018-06-01T08:12:21.021Z,5.90
2018-06-01T08:13:21.092Z,5.90
2018-06-01T08:14:21.030Z,5.90
2018-06-01T08:15:21.021Z,5.90
2018-06-01T08:16:21.032Z,6.99
2018-06-01T08:17:21.030Z,6.99
2018-06-01T08:18:21.101Z,6.99
2018-06-01T08:19:21.109Z,6.99
2018-06-01T08:20:21.159Z,6.99
2018-06-01T08:21:21.105Z,6.99
2018-06-01T08:22:21.108Z,6.99
2018-06-01T08:23:21.040Z,6.99
2018-06-01T08:24:21.105Z,6.99
2018-06-01T08:25:21.110Z,6.99
2018-06-01T08:26:21.035Z,4.50
2018-06-01T08:27:21.104Z,4.50
2018-06-01T08:28:21.110Z,4.50
2018-06-01T08:29:21.067Z,4.50
2018-06-01T08:30:21.046Z,4.50
2018-06-01T08:31:21.047Z,4.50
2018-06-01T08:32:21.071Z,4.50
2018-06-01T08:33:21.045Z,4.50
2018-06-01T08:34:21.043Z,4.50
2018-06-01T08:35:21.126Z,4.50
2018-06-01T08:36:21.049Z,3.60
2018-06-01T08:37:21.052Z,3.60
2018-06-01T08:38:21.118Z,3.60
2018-06-01T08:39:21.060Z,3.60
2018-06-01T08:40:21.118Z,3.60
2018-06-01T08:41:21.052Z,3.60
2018-06-01T08:42:21.119Z,3.60
2018-06-01T08:43:21.054Z,3.60
2018-06-01T08:44:21.054Z,3.60
2018-06-01T08:45:21.122Z,3.60
2018-06-01T08:46:21.037Z,4.50
2018-06-01T08:47:21.098Z,4.50
2018-06-01T08:48:21.091Z,4.50
2018-06-01T08:49:21.084Z,4.50
2018-06-01T08:50:21.152Z,4.50
2018-06-01T08:51:21.140Z,4.50
2018-06-01T08:52:21.137Z,4.50
2018-06-01T08:53:21.155Z,4.50
2018-06-01T08:54:21.093Z,4.50
2018-06-01T08:55:21.092Z,4.50
2018-06-01T08:56:21.023Z,5.99
2018-06-01T08:57:21.091Z,5.99
2018-06-01T08:58:21.149Z,5.99
2018-06-01T08:59:21.088Z,5.99
2018-06-01T09:00:21.169Z,5.99
2018-06-01T09:01:21.089Z,5.99
2018-06-01T09:02:21.081Z,5.99
2018-06-01T09:03:21.130Z,5.99
2018-06-01T09:04:21.093Z,5.99
2018-06-01T09:05:21.111Z,5.99
2018-06-01T09:06:21.133Z,3.20
2018-06-01T09:07:21.168Z,3.20
2018-06-01T09:08:21.164Z,3.20
2018-06-01T09:09:21.104Z,3.20
2018-06-01T09:10:21.185Z,3.20
2018-06-01T09:11:21.099Z,3.20
2018-06-01T09:12:21.170Z,3.20
2018-06-01T09:13:21.152Z,3.20
2018-06-01T09:14:21.167Z,3.20
2018-06-01T09:15:21.171Z,3.20
2018-06-01T09:16:21.097Z,3.10
2018-06-01T09:17:21.117Z,3.10
2018-06-01T09:18:21.079Z,3.10
2018-06-01T09:19:21.097Z,3.10
2018-06-01T09:20:21.167Z,3.10
2018-06-01T09:21:21.165Z,3.10
2018-06-01T09:22:21.141Z,3.10
2018-06-01T09:23:21.113Z,3.10
2018-06-01T09:24:21.174Z,3.10
2018-06-01T09:25:21.069Z,3.10
2018-06-01T09:26:21.172Z,3.30
2018-06-01T09:27:21.123Z,3.30
2018-06-01T09:28:21.170Z,3.30
2018-06-01T09:29:21.119Z,3.30
2018-06-01T09:30:21.124Z,3.30
2018-06-01T09:31:21.152Z,3.30
2018-06-01T09:32:21.151Z,3.30
2018-06-01T09:33:21.110Z,3.30
2018-06-01T09:34:21.056Z,3.30
2018-06-01T09:35:21.058Z,3.30
2018-06-01T09:36:21.146Z,5.00
2018-06-01T09:37:21.077Z,5.00
2018-06-01T09:38:21.054Z,5.00
2018-06-01T09:39:21.040Z,5.00
2018-06-01T09:40:21.088Z,5.00
2018-06-01T09:41:21.148Z,5.00
2018-06-01T09:42:21.092Z,5.00
2018-06-01T09:43:21.092Z,5.00
2018-06-01T09:44:21.111Z,5.00
2018-06-01T09:45:21.068Z,5.00
2018-06-01T09:46:21.142Z,4.20
2018-06-01T09:47:21.073Z,4.20
2018-06-01T09:48:21.027Z,4.20
2018-06-01T09:49:21.094Z,4.20
2018-06-01T09:50:21.114Z,4.20
2018-06-01T09:51:21.094Z,4.20
2018-06-01T09:52:21.058Z,4.20
2018-06-01T09:53:21.051Z,4.20
2018-06-01T09:54:21.125Z,4.20
2018-06-01T09:55:21.135Z,4.20
2018-06-01T09:56:21.139Z,5.99
2018-06-01T09:57:21.113Z,5.99
2018-06-01T09:58:21.029Z,5.99
2018-06-01T09:59:21.159Z,5.99
2018-06-01T10:00:21.159Z,5.99
2018-06-01T10:01:21.122Z,5.99
2018-06-01T10:02:21.152Z,5.99
2018-06-01T10:03:21.120Z,5.99
2018-06-01T10:04:21.043Z,5.99
2018-06-01T10:05:21.070Z,5.99
2018-06-01T10:06:21.146Z,5.80
2018-06-01T10:07:21.134Z,5.80
2018-06-01T10:08:21.092Z,5.80
2018-06-01T10:09:21.141Z,5.80
2018-06-01T10:10:21.202Z,5.80
2018-06-01T10:11:21.178Z,5.80
2018-06-01T10:12:21.142Z,5.80
2018-06-01T10:13:21.153Z,5.80
2018-06-01T10:14:21.153Z,5.80
2018-06-01T10:15:21.160Z,5.80
2018-06-01T10:16:21.084Z,6.40
2018-06-01T10:17:21.168Z,6.40
2018-06-01T10:18:21.088Z,6.40
2018-06-01T10:19:21.090Z,6.40
2018-06-01T10:20:21.176Z,6.40
2018-06-01T10:21:21.116Z,6.40
2018-06-01T10:22:21.177Z,6.40
2018-06-01T10:23:21.167Z,6.40
2018-06-01T10:24:21.176Z,6.40
2018-06-01T10:25:21.179Z,6.40
2018-06-01T10:26:21.120Z,6.50
2018-06-01T10:27:21.183Z,6.50
2018-06-01T10:28:21.117Z,6.50
2018-06-01T10:29:21.187Z,6.50
2018-06-01T10:30:21.167Z,6.50
2018-06-01T10:31:21.149Z,6.50
2018-06-01T10:32:21.125Z,6.50
2018-06-01T10:33:21.123Z,6.50
2018-06-01T10:34:21.120Z,6.50
2018-06-01T10:35:21.194Z,6.50
2018-06-01T10:36:21.214Z,8.10
2018-06-01T10:37:21.217Z,8.10
2018-06-01T10:38:21.169Z,8.10
2018-06-01T10:39:21.223Z,8.10
2018-06-01T10:40:21.168Z,8.10
2018-06-01T10:41:21.178Z,8.10
2018-06-01T10:42:21.156Z,8.10
2018-06-01T10:43:21.217Z,8.10
2018-06-01T10:44:21.095Z,8.10
2018-06-01T10:45:21.248Z,8.10
2018-06-01T10:46:21.227Z,9.50
2018-06-01T10:47:21.170Z,9.50
2018-06-01T10:48:21.105Z,9.50
2018-06-01T10:49:21.228Z,9.50
2018-06-01T10:50:21.225Z,9.50
2018-06-01T10:51:21.233Z,9.50
2018-06-01T10:52:21.204Z,9.50
2018-06-01T10:53:21.177Z,9.50
2018-06-01T10:54:21.267Z,9.50
2018-06-01T10:55:21.163Z,9.50
2018-06-01T10:56:21.181Z,9.50
2018-06-01T10:57:21.171Z,5.10
2018-06-01T10:58:21.225Z,5.10
2018-06-01T10:59:21.231Z,5.10
2018-06-01T11:00:21.162Z,5.10
2018-06-01T11:01:21.227Z,5.10
2018-06-01T11:02:21.175Z,5.10
2018-06-01T11:03:21.225Z,5.10
2018-06-01T11:04:21.232Z,5.10
2018-06-01T11:05:21.166Z,5.10
2018-06-01T11:06:21.168Z,5.10
2018-06-01T11:07:21.163Z,5.90
2018-06-01T11:08:21.200Z,5.90
2018-06-01T11:09:21.117Z,5.90
2018-06-01T11:10:21.201Z,5.90
2018-06-01T11:11:21.101Z,5.90
2018-06-01T11:12:21.149Z,5.90
2018-06-01T11:13:21.215Z,5.90
2018-06-01T11:14:21.156Z,5.90
2018-06-01T11:15:21.122Z,5.90
2018-06-01T11:16:21.106Z,5.90
2018-06-01T11:17:21.183Z,4.80
2018-06-01T11:18:21.240Z,4.80
2018-06-01T11:19:21.249Z,4.80
2018-06-01T11:20:21.123Z,4.80
2018-06-01T11:21:21.259Z,4.80
2018-06-01T11:22:21.204Z,4.80
2018-06-01T11:23:21.183Z,4.80
2018-06-01T11:24:21.222Z,4.80
2018-06-01T11:25:21.132Z,4.80
2018-06-01T11:26:21.226Z,4.80
2018-06-01T11:27:21.298Z,5.50
2018-06-01T11:28:21.263Z,5.50
2018-06-01T11:29:21.186Z,5.50
2018-06-01T11:30:21.228Z,5.50
2018-06-01T11:31:21.169Z,5.50
2018-06-01T11:32:21.182Z,5.50
2018-06-01T11:33:21.194Z,5.50
2018-06-01T11:34:21.232Z,5.50
2018-06-01T11:35:21.202Z,5.50
2018-06-01T11:36:21.257Z,5.50
2018-06-01T11:37:21.203Z,6.10
2018-06-01T11:38:21.261Z,6.10
2018-06-01T11:39:21.266Z,6.10
2018-06-01T11:40:21.201Z,6.10
2018-06-01T11:41:21.157Z,6.10
2018-06-01T11:42:21.143Z,6.10
2018-06-01T11:43:21.203Z,6.10
2018-06-01T11:44:21.212Z,6.10
2018-06-01T11:45:21.193Z,6.10
2018-06-01T11:46:21.271Z,6.10
2018-06-01T11:47:21.269Z,4.20
2018-06-01T11:48:21.256Z,4.20
2018-06-01T11:49:21.333Z,4.20
2018-06-01T11:50:21.207Z,4.20
2018-06-01T11:51:21.350Z,4.20
2018-06-01T11:52:21.208Z,4.20
2018-06-01T11:53:21.218Z,4.20
2018-06-01T11:54:21.280Z,4.20
2018-06-01T11:55:21.150Z,4.20
2018-06-01T11:56:21.216Z,4.20
2018-06-01T11:57:21.384Z,4.40
2018-06-01T11:58:21.244Z,4.40
2018-06-01T11:59:21.248Z,4.40
2018-06-01T12:00:21.191Z,4.40
2018-06-01T12:01:21.150Z,4.40
2018-06-01T12:02:21.312Z,4.40
2018-06-01T12:03:21.187Z,4.40
2018-06-01T12:04:21.249Z,4.40
2018-06-01T12:05:21.249Z,4.40
2018-06-01T12:06:21.181Z,4.40
2018-06-01T12:07:21.219Z,3.90
2018-06-01T12:08:21.121Z,3.90
2018-06-01T12:09:21.248Z,3.90
2018-06-01T12:10:21.147Z,3.90
2018-06-01T12:11:21.148Z,3.90
2018-06-01T12:12:21.123Z,3.90
2018-06-01T12:13:21.250Z,3.90
2018-06-01T12:14:21.190Z,3.90
2018-06-01T12:16:21.207Z,3.90
2018-06-01T12:17:21.222Z,4.00
2018-06-01T12:18:21.183Z,4.00
2018-06-01T12:19:21.243Z,4.00
2018-06-01T12:20:21.181Z,4.00
2018-06-01T12:21:21.215Z,4.00
2018-06-01T12:22:21.131Z,4.00
2018-06-01T12:23:21.300Z,4.00
2018-06-01T12:24:21.222Z,4.00
2018-06-01T12:25:21.217Z,4.00
2018-06-01T12:26:21.163Z,4.00
2018-06-01T12:27:21.200Z,3.40
2018-06-01T12:28:21.265Z,3.40
2018-06-01T12:29:21.492Z,3.40
2018-06-01T12:30:21.266Z,3.40
2018-06-01T12:31:21.201Z,3.40
2018-06-01T12:32:21.271Z,3.40
2018-06-01T12:33:21.204Z,3.40
2018-06-01T12:34:21.206Z,3.40
2018-06-01T12:35:21.441Z,3.40
2018-06-01T12:36:21.279Z,3.40
2018-06-01T12:37:21.145Z,3.80
2018-06-01T12:38:21.262Z,3.80
2018-06-01T12:39:21.227Z,3.80
2018-06-01T12:40:21.271Z,3.80
2018-06-01T12:41:21.267Z,3.80
2018-06-01T12:42:21.167Z,3.80
2018-06-01T12:43:21.268Z,3.80
2018-06-01T12:44:21.263Z,3.80
2018-06-01T12:45:21.146Z,3.80
2018-06-01T12:46:21.235Z,3.80
2018-06-01T12:47:21.261Z,4.00
2018-06-01T12:48:21.274Z,4.00
2018-06-01T12:49:21.148Z,4.00
2018-06-01T12:50:21.213Z,4.00
2018-06-01T12:51:21.232Z,4.00
2018-06-01T12:52:21.280Z,4.00
2018-06-01T12:53:21.274Z,4.00
2018-06-01T12:54:21.211Z,4.00
2018-06-01T12:55:21.213Z,4.00
2018-06-01T12:56:21.252Z,4.00
2018-06-01T12:57:21.306Z,4.90
2018-06-01T12:58:21.197Z,4.90
2018-06-01T12:59:21.240Z,4.90
2018-06-01T13:00:21.330Z,4.90
2018-06-01T13:01:21.331Z,4.90
2018-06-01T13:02:21.249Z,4.90
2018-06-01T13:03:21.253Z,4.90
2018-06-01T13:04:21.273Z,4.90
2018-06-01T13:05:21.231Z,4.90
2018-06-01T13:06:21.315Z,4.90
2018-06-01T13:07:21.255Z,3.80